sensor_id;sensor_type;location;lat;lon;timestamp;P1;durP1;ratioP1;P2;durP2;ratioP2
15480;SDS011;7842;50.904;6.670;2022-07-29T00:02:10;3.90;;;2.03;;
15480;SDS011;7842;50.904;6.670;2022-07-29T00:04:35;4.77;;;2.10;;
15480;SDS011;7842;50.904;6.670;2022-07-29T00:07:01;2.73;;;1.90;;
15480;SDS011;7842;50.904;6.670;2022-07-29T00:09:27;4.22;;;2.20;;
15480;SDS011;7842;50.904;6.670;2022-07-29T00:11:53;4.40;;;2.30;;
15480;SDS011;7842;50.904;6.670;2022-07-29T00:14:21;3.50;;;2.10;;
15480;SDS011;7842;50.904;6.670;2022-07-29T00:16:47;3.70;;;1.93;;
15480;SDS011;7842;50.904;6.670;2022-07-29T00:19:12;2.78;;;1.83;;
15480;SDS011;7842;50.904;6.670;2022-07-29T00:21:38;4.00;;;2.20;;
15480;SDS011;7842;50.904;6.670;2022-07-29T00:24:04;4.07;;;2.00;;
15480;SDS011;7842;50.904;6.670;2022-07-29T00:26:30;3.50;;;2.10;;
15480;SDS011;7842;50.904;6.670;2022-07-29T00:28:57;3.85;;;2.30;;
15480;SDS011;7842;50.904;6.670;2022-07-29T00:31:23;3.60;;;2.00;;
15480;SDS011;7842;50.904;6.670;2022-07-29T00:33:49;3.13;;;2.17;;
15480;SDS011;7842;50.904;6.670;2022-07-29T00:36:14;4.33;;;2.20;;
15480;SDS011;7842;50.904;6.670;2022-07-29T00:38:40;2.80;;;2.20;;
15480;SDS011;7842;50.904;6.670;2022-07-29T00:41:09;4.60;;;2.10;;
15480;SDS011;7842;50.904;6.670;2022-07-29T00:43:34;3.37;;;2.13;;
15480;SDS011;7842;50.904;6.670;2022-07-29T00:46:00;3.28;;;2.10;;
15480;SDS011;7842;50.904;6.670;2022-07-29T00:48:26;3.63;;;2.00;;
15480;SDS011;7842;50.904;6.670;2022-07-29T00:50:51;3.70;;;2.10;;
15480;SDS011;7842;50.904;6.670;2022-07-29T00:53:18;5.28;;;2.20;;
15480;SDS011;7842;50.904;6.670;2022-07-29T00:55:45;2.92;;;2.00;;
15480;SDS011;7842;50.904;6.670;2022-07-29T00:58:11;3.28;;;1.98;;
15480;SDS011;7842;50.904;6.670;2022-07-29T01:00:38;4.97;;;2.40;;
15480;SDS011;7842;50.904;6.670;2022-07-29T01:03:05;4.35;;;2.25;;
15480;SDS011;7842;50.904;6.670;2022-07-29T01:05:31;4.25;;;2.17;;
15480;SDS011;7842;50.904;6.670;2022-07-29T01:07:58;5.60;;;2.50;;
15480;SDS011;7842;50.904;6.670;2022-07-29T01:10:24;2.78;;;2.05;;
15480;SDS011;7842;50.904;6.670;2022-07-29T01:12:51;3.80;;;2.22;;
15480;SDS011;7842;50.904;6.670;2022-07-29T01:15:19;3.22;;;2.00;;
15480;SDS011;7842;50.904;6.670;2022-07-29T01:17:47;3.58;;;2.00;;
15480;SDS011;7842;50.904;6.670;2022-07-29T01:23:11;2.83;;;1.90;;
15480;SDS011;7842;50.904;6.670;2022-07-29T01:34:11;4.07;;;2.28;;
15480;SDS011;7842;50.904;6.670;2022-07-29T01:36:46;3.50;;;2.00;;
15480;SDS011;7842;50.904;6.670;2022-07-29T01:39:30;3.83;;;2.17;;
15480;SDS011;7842;50.904;6.670;2022-07-29T01:45:02;3.95;;;2.25;;
15480;SDS011;7842;50.904;6.670;2022-07-29T01:47:43;4.05;;;2.20;;
15480;SDS011;7842;50.904;6.670;2022-07-29T01:50:16;3.70;;;2.10;;
15480;SDS011;7842;50.904;6.670;2022-07-29T01:52:59;4.28;;;2.28;;
15480;SDS011;7842;50.904;6.670;2022-07-29T01:55:28;3.17;;;2.17;;
15480;SDS011;7842;50.904;6.670;2022-07-29T01:57:57;2.90;;;2.10;;
15480;SDS011;7842;50.904;6.670;2022-07-29T02:00:25;4.45;;;2.30;;
15480;SDS011;7842;50.904;6.670;2022-07-29T02:02:51;8.88;;;2.53;;
15480;SDS011;7842;50.904;6.670;2022-07-29T02:05:20;3.70;;;2.30;;
15480;SDS011;7842;50.904;6.670;2022-07-29T02:07:48;4.57;;;2.40;;
15480;SDS011;7842;50.904;6.670;2022-07-29T02:10:15;4.38;;;2.53;;
15480;SDS011;7842;50.904;6.670;2022-07-29T02:12:45;4.43;;;2.50;;
15480;SDS011;7842;50.904;6.670;2022-07-29T02:15:12;4.00;;;2.43;;
15480;SDS011;7842;50.904;6.670;2022-07-29T02:17:46;4.28;;;2.30;;
15480;SDS011;7842;50.904;6.670;2022-07-29T02:20:18;3.85;;;2.50;;
15480;SDS011;7842;50.904;6.670;2022-07-29T02:22:44;5.93;;;2.30;;
15480;SDS011;7842;50.904;6.670;2022-07-29T02:25:11;3.38;;;2.33;;
15480;SDS011;7842;50.904;6.670;2022-07-29T02:27:38;4.50;;;2.70;;
15480;SDS011;7842;50.904;6.670;2022-07-29T02:30:05;4.68;;;2.50;;
15480;SDS011;7842;50.904;6.670;2022-07-29T02:32:34;4.70;;;2.30;;
15480;SDS011;7842;50.904;6.670;2022-07-29T02:35:02;4.95;;;2.53;;
15480;SDS011;7842;50.904;6.670;2022-07-29T02:37:29;5.67;;;2.43;;
15480;SDS011;7842;50.904;6.670;2022-07-29T02:39:56;5.05;;;2.58;;
15480;SDS011;7842;50.904;6.670;2022-07-29T02:42:23;7.13;;;2.40;;
15480;SDS011;7842;50.904;6.670;2022-07-29T02:44:51;6.65;;;2.88;;
15480;SDS011;7842;50.904;6.670;2022-07-29T02:47:21;4.97;;;2.58;;
15480;SDS011;7842;50.904;6.670;2022-07-29T02:50:00;8.57;;;2.97;;
15480;SDS011;7842;50.904;6.670;2022-07-29T02:52:57;6.18;;;2.53;;
15480;SDS011;7842;50.904;6.670;2022-07-29T02:56:14;6.60;;;2.85;;
15480;SDS011;7842;50.904;6.670;2022-07-29T02:58:29;7.65;;;2.63;;
15480;SDS011;7842;50.904;6.670;2022-07-29T03:00:58;5.18;;;2.60;;
15480;SDS011;7842;50.904;6.670;2022-07-29T03:03:28;4.88;;;2.65;;
15480;SDS011;7842;50.904;6.670;2022-07-29T03:06:03;4.88;;;2.47;;
15480;SDS011;7842;50.904;6.670;2022-07-29T03:08:30;5.20;;;2.45;;
15480;SDS011;7842;50.904;6.670;2022-07-29T03:10:57;6.55;;;2.55;;
15480;SDS011;7842;50.904;6.670;2022-07-29T03:13:23;5.97;;;2.80;;
15480;SDS011;7842;50.904;6.670;2022-07-29T03:15:49;5.97;;;2.60;;
15480;SDS011;7842;50.904;6.670;2022-07-29T03:18:16;5.47;;;2.47;;
15480;SDS011;7842;50.904;6.670;2022-07-29T03:20:42;6.07;;;2.40;;
15480;SDS011;7842;50.904;6.670;2022-07-29T03:23:08;4.13;;;2.37;;
15480;SDS011;7842;50.904;6.670;2022-07-29T03:25:34;5.57;;;2.60;;
15480;SDS011;7842;50.904;6.670;2022-07-29T03:27:59;5.95;;;2.65;;
15480;SDS011;7842;50.904;6.670;2022-07-29T03:30:25;10.13;;;2.83;;
15480;SDS011;7842;50.904;6.670;2022-07-29T03:32:51;5.13;;;2.77;;
15480;SDS011;7842;50.904;6.670;2022-07-29T03:35:18;5.18;;;2.60;;
15480;SDS011;7842;50.904;6.670;2022-07-29T03:37:44;4.95;;;2.70;;
15480;SDS011;7842;50.904;6.670;2022-07-29T03:40:11;6.95;;;2.83;;
15480;SDS011;7842;50.904;6.670;2022-07-29T03:42:43;5.50;;;2.70;;
15480;SDS011;7842;50.904;6.670;2022-07-29T03:45:11;5.97;;;2.70;;
15480;SDS011;7842;50.904;6.670;2022-07-29T03:47:40;4.83;;;2.60;;
15480;SDS011;7842;50.904;6.670;2022-07-29T03:50:10;4.85;;;2.83;;
15480;SDS011;7842;50.904;6.670;2022-07-29T03:52:39;5.90;;;2.90;;
15480;SDS011;7842;50.904;6.670;2022-07-29T03:55:05;6.47;;;2.75;;
15480;SDS011;7842;50.904;6.670;2022-07-29T03:57:32;8.10;;;3.67;;
15480;SDS011;7842;50.904;6.670;2022-07-29T03:59:59;9.63;;;3.72;;
15480;SDS011;7842;50.904;6.670;2022-07-29T04:02:28;8.00;;;3.97;;
15480;SDS011;7842;50.904;6.670;2022-07-29T04:04:54;9.02;;;3.83;;
15480;SDS011;7842;50.904;6.670;2022-07-29T04:07:20;9.13;;;3.75;;
15480;SDS011;7842;50.904;6.670;2022-07-29T04:09:45;7.65;;;3.58;;
15480;SDS011;7842;50.904;6.670;2022-07-29T04:12:11;4.88;;;3.00;;
15480;SDS011;7842;50.904;6.670;2022-07-29T04:14:37;6.13;;;3.30;;
15480;SDS011;7842;50.904;6.670;2022-07-29T04:17:03;6.32;;;3.20;;
15480;SDS011;7842;50.904;6.670;2022-07-29T04:19:30;4.88;;;2.97;;
15480;SDS011;7842;50.904;6.670;2022-07-29T04:21:57;5.20;;;2.95;;
15480;SDS011;7842;50.904;6.670;2022-07-29T04:24:23;4.40;;;2.75;;
15480;SDS011;7842;50.904;6.670;2022-07-29T04:26:48;5.50;;;2.90;;
15480;SDS011;7842;50.904;6.670;2022-07-29T04:29:14;4.65;;;2.70;;
15480;SDS011;7842;50.904;6.670;2022-07-29T04:31:40;4.60;;;2.80;;
15480;SDS011;7842;50.904;6.670;2022-07-29T04:34:06;5.10;;;3.10;;
15480;SDS011;7842;50.904;6.670;2022-07-29T04:36:32;5.35;;;3.17;;
15480;SDS011;7842;50.904;6.670;2022-07-29T04:38:58;6.00;;;3.08;;
15480;SDS011;7842;50.904;6.670;2022-07-29T04:41:24;5.10;;;3.03;;
15480;SDS011;7842;50.904;6.670;2022-07-29T04:43:49;5.17;;;3.07;;
15480;SDS011;7842;50.904;6.670;2022-07-29T04:46:15;4.23;;;2.90;;
15480;SDS011;7842;50.904;6.670;2022-07-29T04:48:41;4.70;;;2.80;;
15480;SDS011;7842;50.904;6.670;2022-07-29T04:51:06;5.37;;;2.93;;
15480;SDS011;7842;50.904;6.670;2022-07-29T04:53:32;4.30;;;2.80;;
15480;SDS011;7842;50.904;6.670;2022-07-29T04:55:58;4.28;;;3.00;;
15480;SDS011;7842;50.904;6.670;2022-07-29T04:58:23;5.65;;;3.00;;
15480;SDS011;7842;50.904;6.670;2022-07-29T05:00:49;4.57;;;2.87;;
15480;SDS011;7842;50.904;6.670;2022-07-29T05:03:15;4.95;;;2.88;;
15480;SDS011;7842;50.904;6.670;2022-07-29T05:05:41;4.60;;;3.00;;
15480;SDS011;7842;50.904;6.670;2022-07-29T05:08:07;5.40;;;3.25;;
15480;SDS011;7842;50.904;6.670;2022-07-29T05:10:33;6.10;;;3.10;;
15480;SDS011;7842;50.904;6.670;2022-07-29T05:13:02;4.57;;;2.90;;
15480;SDS011;7842;50.904;6.670;2022-07-29T05:15:30;5.13;;;3.25;;
15480;SDS011;7842;50.904;6.670;2022-07-29T05:17:56;5.63;;;2.90;;
15480;SDS011;7842;50.904;6.670;2022-07-29T05:20:21;4.77;;;2.87;;
15480;SDS011;7842;50.904;6.670;2022-07-29T05:22:51;4.68;;;2.90;;
15480;SDS011;7842;50.904;6.670;2022-07-29T05:25:17;4.25;;;2.67;;
15480;SDS011;7842;50.904;6.670;2022-07-29T05:27:43;5.30;;;3.13;;
15480;SDS011;7842;50.904;6.670;2022-07-29T05:30:08;4.30;;;3.00;;
15480;SDS011;7842;50.904;6.670;2022-07-29T05:32:34;4.82;;;3.08;;
15480;SDS011;7842;50.904;6.670;2022-07-29T05:35:00;4.30;;;3.00;;
15480;SDS011;7842;50.904;6.670;2022-07-29T05:37:25;5.05;;;3.10;;
15480;SDS011;7842;50.904;6.670;2022-07-29T05:39:51;4.53;;;3.25;;
15480;SDS011;7842;50.904;6.670;2022-07-29T05:42:17;5.77;;;3.00;;
15480;SDS011;7842;50.904;6.670;2022-07-29T05:44:42;4.43;;;3.63;;
15480;SDS011;7842;50.904;6.670;2022-07-29T05:47:08;5.57;;;3.88;;
15480;SDS011;7842;50.904;6.670;2022-07-29T05:49:33;4.77;;;3.60;;
15480;SDS011;7842;50.904;6.670;2022-07-29T05:51:59;4.43;;;3.87;;
15480;SDS011;7842;50.904;6.670;2022-07-29T05:54:25;7.00;;;4.47;;
15480;SDS011;7842;50.904;6.670;2022-07-29T05:56:50;7.43;;;5.03;;
15480;SDS011;7842;50.904;6.670;2022-07-29T05:59:16;8.23;;;4.70;;
15480;SDS011;7842;50.904;6.670;2022-07-29T06:01:42;8.05;;;4.80;;
15480;SDS011;7842;50.904;6.670;2022-07-29T06:04:07;8.40;;;4.40;;
15480;SDS011;7842;50.904;6.670;2022-07-29T06:06:33;6.90;;;3.87;;
15480;SDS011;7842;50.904;6.670;2022-07-29T06:08:59;5.50;;;3.80;;
15480;SDS011;7842;50.904;6.670;2022-07-29T06:11:26;8.82;;;3.92;;
15480;SDS011;7842;50.904;6.670;2022-07-29T06:13:52;5.05;;;3.83;;
15480;SDS011;7842;50.904;6.670;2022-07-29T06:16:18;5.40;;;3.60;;
15480;SDS011;7842;50.904;6.670;2022-07-29T06:18:44;6.13;;;3.50;;
15480;SDS011;7842;50.904;6.670;2022-07-29T06:21:09;5.95;;;3.88;;
15480;SDS011;7842;50.904;6.670;2022-07-29T06:23:36;6.03;;;3.88;;
15480;SDS011;7842;50.904;6.670;2022-07-29T06:26:02;6.43;;;4.35;;
15480;SDS011;7842;50.904;6.670;2022-07-29T06:28:28;6.32;;;3.95;;
15480;SDS011;7842;50.904;6.670;2022-07-29T06:30:53;7.23;;;4.50;;
15480;SDS011;7842;50.904;6.670;2022-07-29T06:33:19;6.47;;;4.40;;
15480;SDS011;7842;50.904;6.670;2022-07-29T06:35:45;7.13;;;4.75;;
15480;SDS011;7842;50.904;6.670;2022-07-29T06:38:14;9.02;;;4.82;;
15480;SDS011;7842;50.904;6.670;2022-07-29T06:40:43;11.43;;;5.30;;
15480;SDS011;7842;50.904;6.670;2022-07-29T06:43:38;10.15;;;5.18;;
15480;SDS011;7842;50.904;6.670;2022-07-29T06:46:07;9.05;;;5.47;;
15480;SDS011;7842;50.904;6.670;2022-07-29T06:48:33;8.60;;;5.07;;
15480;SDS011;7842;50.904;6.670;2022-07-29T06:51:01;7.95;;;5.25;;
15480;SDS011;7842;50.904;6.670;2022-07-29T06:53:27;8.82;;;4.88;;
15480;SDS011;7842;50.904;6.670;2022-07-29T06:55:53;8.98;;;5.10;;
15480;SDS011;7842;50.904;6.670;2022-07-29T06:58:19;9.23;;;5.35;;
15480;SDS011;7842;50.904;6.670;2022-07-29T07:00:48;7.30;;;5.20;;
15480;SDS011;7842;50.904;6.670;2022-07-29T07:03:15;6.73;;;4.93;;
15480;SDS011;7842;50.904;6.670;2022-07-29T07:05:41;7.80;;;5.03;;
15480;SDS011;7842;50.904;6.670;2022-07-29T07:08:07;6.90;;;4.70;;
15480;SDS011;7842;50.904;6.670;2022-07-29T07:10:33;7.78;;;4.88;;
15480;SDS011;7842;50.904;6.670;2022-07-29T07:12:59;8.30;;;5.10;;
15480;SDS011;7842;50.904;6.670;2022-07-29T07:15:25;7.97;;;5.03;;
15480;SDS011;7842;50.904;6.670;2022-07-29T07:17:52;9.20;;;5.45;;
15480;SDS011;7842;50.904;6.670;2022-07-29T07:20:17;9.17;;;5.63;;
15480;SDS011;7842;50.904;6.670;2022-07-29T07:22:43;8.93;;;5.28;;
15480;SDS011;7842;50.904;6.670;2022-07-29T07:25:09;6.67;;;5.13;;
15480;SDS011;7842;50.904;6.670;2022-07-29T07:27:35;7.13;;;5.30;;
15480;SDS011;7842;50.904;6.670;2022-07-29T07:30:02;7.68;;;5.80;;
15480;SDS011;7842;50.904;6.670;2022-07-29T07:32:30;8.97;;;5.37;;
15480;SDS011;7842;50.904;6.670;2022-07-29T07:34:56;9.30;;;5.50;;
15480;SDS011;7842;50.904;6.670;2022-07-29T07:37:22;10.57;;;5.72;;
15480;SDS011;7842;50.904;6.670;2022-07-29T07:39:49;8.65;;;5.53;;
15480;SDS011;7842;50.904;6.670;2022-07-29T07:42:16;7.22;;;5.32;;
15480;SDS011;7842;50.904;6.670;2022-07-29T07:44:42;11.60;;;5.90;;
15480;SDS011;7842;50.904;6.670;2022-07-29T07:47:08;7.82;;;5.70;;
15480;SDS011;7842;50.904;6.670;2022-07-29T07:49:34;8.32;;;6.00;;
15480;SDS011;7842;50.904;6.670;2022-07-29T07:52:00;7.32;;;5.90;;
15480;SDS011;7842;50.904;6.670;2022-07-29T07:54:26;7.88;;;5.95;;
15480;SDS011;7842;50.904;6.670;2022-07-29T07:56:52;9.23;;;6.30;;
15480;SDS011;7842;50.904;6.670;2022-07-29T07:59:18;7.68;;;5.57;;
15480;SDS011;7842;50.904;6.670;2022-07-29T08:01:44;8.07;;;5.95;;
15480;SDS011;7842;50.904;6.670;2022-07-29T08:04:10;7.70;;;6.10;;
15480;SDS011;7842;50.904;6.670;2022-07-29T08:06:35;8.73;;;5.63;;
15480;SDS011;7842;50.904;6.670;2022-07-29T08:09:03;7.32;;;5.88;;
15480;SDS011;7842;50.904;6.670;2022-07-29T08:11:28;9.53;;;6.30;;
15480;SDS011;7842;50.904;6.670;2022-07-29T08:13:54;10.30;;;6.30;;
15480;SDS011;7842;50.904;6.670;2022-07-29T08:16:20;9.65;;;6.00;;
15480;SDS011;7842;50.904;6.670;2022-07-29T08:18:46;8.33;;;6.30;;
15480;SDS011;7842;50.904;6.670;2022-07-29T08:21:13;7.57;;;6.27;;
15480;SDS011;7842;50.904;6.670;2022-07-29T08:23:39;9.45;;;6.85;;
15480;SDS011;7842;50.904;6.670;2022-07-29T08:26:10;11.18;;;6.78;;
15480;SDS011;7842;50.904;6.670;2022-07-29T08:28:38;11.93;;;6.90;;
15480;SDS011;7842;50.904;6.670;2022-07-29T08:31:11;9.57;;;6.35;;
15480;SDS011;7842;50.904;6.670;2022-07-29T08:33:37;9.15;;;6.65;;
15480;SDS011;7842;50.904;6.670;2022-07-29T08:36:04;7.60;;;6.28;;
15480;SDS011;7842;50.904;6.670;2022-07-29T08:38:30;9.35;;;6.70;;
15480;SDS011;7842;50.904;6.670;2022-07-29T08:40:56;8.68;;;6.75;;
15480;SDS011;7842;50.904;6.670;2022-07-29T08:43:25;8.57;;;6.80;;
15480;SDS011;7842;50.904;6.670;2022-07-29T08:45:51;10.57;;;6.90;;
15480;SDS011;7842;50.904;6.670;2022-07-29T08:48:21;9.98;;;7.28;;
15480;SDS011;7842;50.904;6.670;2022-07-29T08:50:48;9.02;;;6.20;;
15480;SDS011;7842;50.904;6.670;2022-07-29T08:53:19;9.75;;;6.13;;
15480;SDS011;7842;50.904;6.670;2022-07-29T08:55:46;9.93;;;5.87;;
15480;SDS011;7842;50.904;6.670;2022-07-29T08:58:15;6.50;;;5.78;;
15480;SDS011;7842;50.904;6.670;2022-07-29T09:00:43;9.02;;;5.22;;
15480;SDS011;7842;50.904;6.670;2022-07-29T09:03:20;7.07;;;5.30;;
15480;SDS011;7842;50.904;6.670;2022-07-29T09:05:48;7.68;;;5.47;;
15480;SDS011;7842;50.904;6.670;2022-07-29T09:08:15;7.75;;;5.22;;
15480;SDS011;7842;50.904;6.670;2022-07-29T09:10:41;6.03;;;4.78;;
15480;SDS011;7842;50.904;6.670;2022-07-29T09:13:07;7.13;;;4.75;;
15480;SDS011;7842;50.904;6.670;2022-07-29T09:15:33;6.90;;;5.03;;
15480;SDS011;7842;50.904;6.670;2022-07-29T09:17:58;5.50;;;4.40;;
15480;SDS011;7842;50.904;6.670;2022-07-29T09:20:25;7.47;;;4.50;;
15480;SDS011;7842;50.904;6.670;2022-07-29T09:23:11;6.18;;;4.25;;
15480;SDS011;7842;50.904;6.670;2022-07-29T09:25:39;7.78;;;4.80;;
15480;SDS011;7842;50.904;6.670;2022-07-29T09:28:06;8.60;;;4.70;;
15480;SDS011;7842;50.904;6.670;2022-07-29T09:30:52;8.13;;;4.90;;
15480;SDS011;7842;50.904;6.670;2022-07-29T09:33:23;6.22;;;4.80;;
15480;SDS011;7842;50.904;6.670;2022-07-29T09:35:59;7.07;;;5.32;;
15480;SDS011;7842;50.904;6.670;2022-07-29T09:38:29;7.57;;;5.10;;
15480;SDS011;7842;50.904;6.670;2022-07-29T09:40:56;6.40;;;5.05;;
15480;SDS011;7842;50.904;6.670;2022-07-29T09:43:26;7.50;;;4.88;;
15480;SDS011;7842;50.904;6.670;2022-07-29T09:45:52;8.50;;;5.00;;
15480;SDS011;7842;50.904;6.670;2022-07-29T09:48:21;7.22;;;5.20;;
15480;SDS011;7842;50.904;6.670;2022-07-29T09:50:48;5.43;;;4.87;;
15480;SDS011;7842;50.904;6.670;2022-07-29T09:56:13;8.50;;;5.65;;
15480;SDS011;7842;50.904;6.670;2022-07-29T09:58:39;6.25;;;5.50;;
15480;SDS011;7842;50.904;6.670;2022-07-29T10:01:04;7.60;;;5.30;;
15480;SDS011;7842;50.904;6.670;2022-07-29T10:03:30;6.43;;;5.50;;
15480;SDS011;7842;50.904;6.670;2022-07-29T10:06:06;8.73;;;5.45;;
15480;SDS011;7842;50.904;6.670;2022-07-29T10:08:36;6.82;;;5.53;;
15480;SDS011;7842;50.904;6.670;2022-07-29T10:11:08;7.50;;;5.30;;
15480;SDS011;7842;50.904;6.670;2022-07-29T10:13:44;7.97;;;5.35;;
15480;SDS011;7842;50.904;6.670;2022-07-29T10:16:12;8.20;;;5.13;;
15480;SDS011;7842;50.904;6.670;2022-07-29T10:18:39;6.95;;;5.55;;
15480;SDS011;7842;50.904;6.670;2022-07-29T10:21:05;5.75;;;4.97;;
15480;SDS011;7842;50.904;6.670;2022-07-29T10:23:32;7.93;;;5.63;;
15480;SDS011;7842;50.904;6.670;2022-07-29T10:25:59;6.95;;;5.28;;
15480;SDS011;7842;50.904;6.670;2022-07-29T10:28:25;7.82;;;5.43;;
15480;SDS011;7842;50.904;6.670;2022-07-29T10:30:51;7.40;;;5.30;;
15480;SDS011;7842;50.904;6.670;2022-07-29T10:36:22;5.97;;;4.68;;
15480;SDS011;7842;50.904;6.670;2022-07-29T10:41:48;6.20;;;4.80;;
15480;SDS011;7842;50.904;6.670;2022-07-29T10:44:20;6.65;;;4.57;;
15480;SDS011;7842;50.904;6.670;2022-07-29T10:46:47;5.65;;;3.92;;
15480;SDS011;7842;50.904;6.670;2022-07-29T10:54:19;5.78;;;3.83;;
15480;SDS011;7842;50.904;6.670;2022-07-29T10:59:43;6.90;;;4.20;;
15480;SDS011;7842;50.904;6.670;2022-07-29T11:07:21;5.50;;;4.00;;
15480;SDS011;7842;50.904;6.670;2022-07-29T11:15:04;5.68;;;4.20;;
15480;SDS011;7842;50.904;6.670;2022-07-29T11:18:17;6.05;;;3.60;;
15480;SDS011;7842;50.904;6.670;2022-07-29T11:22:56;4.75;;;3.20;;
15480;SDS011;7842;50.904;6.670;2022-07-29T11:25:22;5.93;;;3.58;;
15480;SDS011;7842;50.904;6.670;2022-07-29T11:27:48;5.10;;;3.40;;
15480;SDS011;7842;50.904;6.670;2022-07-29T11:30:15;3.35;;;2.70;;
15480;SDS011;7842;50.904;6.670;2022-07-29T11:32:42;3.55;;;2.90;;
15480;SDS011;7842;50.904;6.670;2022-07-29T11:35:19;5.20;;;3.13;;
15480;SDS011;7842;50.904;6.670;2022-07-29T11:37:46;4.35;;;3.03;;
15480;SDS011;7842;50.904;6.670;2022-07-29T11:40:13;4.75;;;3.00;;
15480;SDS011;7842;50.904;6.670;2022-07-29T11:42:41;3.63;;;2.70;;
15480;SDS011;7842;50.904;6.670;2022-07-29T11:45:14;3.67;;;2.50;;
15480;SDS011;7842;50.904;6.670;2022-07-29T11:50:17;4.63;;;2.65;;
15480;SDS011;7842;50.904;6.670;2022-07-29T11:52:47;3.28;;;2.63;;
15480;SDS011;7842;50.904;6.670;2022-07-29T11:57:50;5.10;;;3.00;;
15480;SDS011;7842;50.904;6.670;2022-07-29T12:00:31;5.03;;;3.10;;
15480;SDS011;7842;50.904;6.670;2022-07-29T12:02:58;5.78;;;3.35;;
15480;SDS011;7842;50.904;6.670;2022-07-29T12:05:38;5.17;;;3.13;;
15480;SDS011;7842;50.904;6.670;2022-07-29T12:08:05;4.32;;;2.90;;
15480;SDS011;7842;50.904;6.670;2022-07-29T12:10:32;8.55;;;3.15;;
15480;SDS011;7842;50.904;6.670;2022-07-29T12:12:58;4.45;;;3.17;;
15480;SDS011;7842;50.904;6.670;2022-07-29T12:15:24;5.35;;;3.10;;
15480;SDS011;7842;50.904;6.670;2022-07-29T12:17:51;4.95;;;3.10;;
15480;SDS011;7842;50.904;6.670;2022-07-29T12:20:27;5.60;;;3.17;;
15480;SDS011;7842;50.904;6.670;2022-07-29T12:22:54;7.40;;;3.15;;
15480;SDS011;7842;50.904;6.670;2022-07-29T12:25:20;4.72;;;3.00;;
15480;SDS011;7842;50.904;6.670;2022-07-29T12:27:47;4.35;;;3.22;;
15480;SDS011;7842;50.904;6.670;2022-07-29T12:30:14;7.00;;;3.60;;
15480;SDS011;7842;50.904;6.670;2022-07-29T12:32:42;6.50;;;3.90;;
15480;SDS011;7842;50.904;6.670;2022-07-29T12:35:09;5.93;;;3.70;;
15480;SDS011;7842;50.904;6.670;2022-07-29T12:37:36;6.43;;;3.80;;
15480;SDS011;7842;50.904;6.670;2022-07-29T12:40:03;5.63;;;3.50;;
15480;SDS011;7842;50.904;6.670;2022-07-29T12:42:29;5.13;;;3.72;;
15480;SDS011;7842;50.904;6.670;2022-07-29T12:44:55;5.20;;;3.90;;
15480;SDS011;7842;50.904;6.670;2022-07-29T12:47:21;7.13;;;4.43;;
15480;SDS011;7842;50.904;6.670;2022-07-29T12:49:48;4.43;;;3.67;;
15480;SDS011;7842;50.904;6.670;2022-07-29T12:55:09;4.40;;;3.45;;
15480;SDS011;7842;50.904;6.670;2022-07-29T12:57:48;5.25;;;3.60;;
15480;SDS011;7842;50.904;6.670;2022-07-29T13:00:21;4.80;;;3.90;;
15480;SDS011;7842;50.904;6.670;2022-07-29T13:02:54;6.38;;;4.07;;
15480;SDS011;7842;50.904;6.670;2022-07-29T13:05:20;7.63;;;5.38;;
15480;SDS011;7842;50.904;6.670;2022-07-29T13:07:46;7.88;;;5.50;;
15480;SDS011;7842;50.904;6.670;2022-07-29T13:12:39;7.47;;;5.10;;
15480;SDS011;7842;50.904;6.670;2022-07-29T13:15:15;5.67;;;4.67;;
15480;SDS011;7842;50.904;6.670;2022-07-29T13:17:42;7.05;;;5.00;;
15480;SDS011;7842;50.904;6.670;2022-07-29T13:20:11;8.57;;;5.57;;
15480;SDS011;7842;50.904;6.670;2022-07-29T13:22:38;8.20;;;5.45;;
15480;SDS011;7842;50.904;6.670;2022-07-29T13:25:05;7.05;;;5.45;;
15480;SDS011;7842;50.904;6.670;2022-07-29T13:27:32;8.57;;;5.20;;
15480;SDS011;7842;50.904;6.670;2022-07-29T13:30:00;6.20;;;4.95;;
15480;SDS011;7842;50.904;6.670;2022-07-29T13:32:27;7.25;;;5.57;;
15480;SDS011;7842;50.904;6.670;2022-07-29T13:34:54;7.28;;;5.55;;
15480;SDS011;7842;50.904;6.670;2022-07-29T13:37:20;7.80;;;6.07;;
15480;SDS011;7842;50.904;6.670;2022-07-29T13:39:46;7.38;;;6.50;;
15480;SDS011;7842;50.904;6.670;2022-07-29T13:42:12;6.75;;;5.90;;
15480;SDS011;7842;50.904;6.670;2022-07-29T13:44:39;6.97;;;4.72;;
15480;SDS011;7842;50.904;6.670;2022-07-29T13:47:05;5.10;;;4.05;;
15480;SDS011;7842;50.904;6.670;2022-07-29T13:49:31;6.03;;;4.40;;
15480;SDS011;7842;50.904;6.670;2022-07-29T13:51:57;8.27;;;5.00;;
15480;SDS011;7842;50.904;6.670;2022-07-29T13:54:23;7.18;;;4.75;;
15480;SDS011;7842;50.904;6.670;2022-07-29T13:56:50;6.35;;;4.10;;
15480;SDS011;7842;50.904;6.670;2022-07-29T13:59:16;7.03;;;4.30;;
15480;SDS011;7842;50.904;6.670;2022-07-29T14:01:42;6.68;;;3.83;;
15480;SDS011;7842;50.904;6.670;2022-07-29T14:04:08;5.18;;;3.40;;
15480;SDS011;7842;50.904;6.670;2022-07-29T14:06:34;4.68;;;3.28;;
15480;SDS011;7842;50.904;6.670;2022-07-29T14:09:00;5.05;;;3.80;;
15480;SDS011;7842;50.904;6.670;2022-07-29T14:11:26;5.80;;;3.63;;
15480;SDS011;7842;50.904;6.670;2022-07-29T14:13:52;5.20;;;3.15;;
15480;SDS011;7842;50.904;6.670;2022-07-29T14:16:18;5.77;;;3.40;;
15480;SDS011;7842;50.904;6.670;2022-07-29T14:18:44;5.03;;;3.60;;
15480;SDS011;7842;50.904;6.670;2022-07-29T14:21:09;4.40;;;3.20;;
15480;SDS011;7842;50.904;6.670;2022-07-29T14:23:36;3.95;;;3.00;;
15480;SDS011;7842;50.904;6.670;2022-07-29T14:26:01;4.80;;;3.10;;
15480;SDS011;7842;50.904;6.670;2022-07-29T14:28:27;4.40;;;3.13;;
15480;SDS011;7842;50.904;6.670;2022-07-29T14:30:53;7.37;;;3.53;;
15480;SDS011;7842;50.904;6.670;2022-07-29T14:33:18;4.03;;;3.15;;
15480;SDS011;7842;50.904;6.670;2022-07-29T14:35:44;6.87;;;3.70;;
15480;SDS011;7842;50.904;6.670;2022-07-29T14:38:10;4.63;;;3.38;;
15480;SDS011;7842;50.904;6.670;2022-07-29T14:40:35;4.70;;;3.27;;
15480;SDS011;7842;50.904;6.670;2022-07-29T14:43:01;4.30;;;3.28;;
15480;SDS011;7842;50.904;6.670;2022-07-29T14:45:27;4.43;;;2.92;;
15480;SDS011;7842;50.904;6.670;2022-07-29T14:47:53;3.10;;;2.60;;
15480;SDS011;7842;50.904;6.670;2022-07-29T14:50:19;4.28;;;2.88;;
15480;SDS011;7842;50.904;6.670;2022-07-29T14:52:45;4.10;;;2.85;;
15480;SDS011;7842;50.904;6.670;2022-07-29T14:55:11;4.05;;;2.60;;
15480;SDS011;7842;50.904;6.670;2022-07-29T14:57:37;3.85;;;2.63;;
15480;SDS011;7842;50.904;6.670;2022-07-29T15:00:03;4.80;;;2.80;;
15480;SDS011;7842;50.904;6.670;2022-07-29T15:02:30;3.83;;;2.70;;
15480;SDS011;7842;50.904;6.670;2022-07-29T15:04:55;3.25;;;2.58;;
15480;SDS011;7842;50.904;6.670;2022-07-29T15:07:21;4.20;;;2.77;;
15480;SDS011;7842;50.904;6.670;2022-07-29T15:09:47;3.38;;;2.70;;
15480;SDS011;7842;50.904;6.670;2022-07-29T15:12:13;4.13;;;2.70;;
15480;SDS011;7842;50.904;6.670;2022-07-29T15:14:38;4.20;;;2.55;;
15480;SDS011;7842;50.904;6.670;2022-07-29T15:17:04;4.15;;;2.80;;
15480;SDS011;7842;50.904;6.670;2022-07-29T15:19:30;3.37;;;2.60;;
15480;SDS011;7842;50.904;6.670;2022-07-29T15:21:55;3.97;;;2.53;;
15480;SDS011;7842;50.904;6.670;2022-07-29T15:24:21;2.67;;;2.43;;
15480;SDS011;7842;50.904;6.670;2022-07-29T15:26:47;3.77;;;2.67;;
15480;SDS011;7842;50.904;6.670;2022-07-29T15:29:13;3.27;;;2.40;;
15480;SDS011;7842;50.904;6.670;2022-07-29T15:31:39;4.60;;;2.40;;
15480;SDS011;7842;50.904;6.670;2022-07-29T15:34:04;3.38;;;2.40;;
15480;SDS011;7842;50.904;6.670;2022-07-29T15:36:30;4.07;;;2.70;;
15480;SDS011;7842;50.904;6.670;2022-07-29T15:38:56;4.15;;;2.53;;
15480;SDS011;7842;50.904;6.670;2022-07-29T15:41:22;6.07;;;2.70;;
15480;SDS011;7842;50.904;6.670;2022-07-29T15:43:48;3.88;;;2.55;;
15480;SDS011;7842;50.904;6.670;2022-07-29T15:46:14;4.07;;;2.60;;
15480;SDS011;7842;50.904;6.670;2022-07-29T15:49:00;3.80;;;2.25;;
15480;SDS011;7842;50.904;6.670;2022-07-29T15:51:26;3.80;;;2.47;;
15480;SDS011;7842;50.904;6.670;2022-07-29T15:53:52;6.35;;;2.47;;
15480;SDS011;7842;50.904;6.670;2022-07-29T15:56:20;3.53;;;2.50;;
15480;SDS011;7842;50.904;6.670;2022-07-29T15:58:46;5.13;;;2.90;;